Terminal Aerodrome Forecast
Issued by NWS Buffalo, NY

Home | Current Version | Previous Version | Text Only | Print | Product List | Glossary On
Versions: 1 2 3 4 5 6 7 8 9 10 11 12 13 14 15 16 17 18 19 20 21 22 23 24 25 26 27 28 29
382
FTUS41 KBUF 150528
TAFBUF
TAF
KBUF 150528Z 1506/1606 VRB03KT P6SM SCT035
     FM151200 20006KT 6SM -SHSN SCT025 BKN040
     FM151400 23008KT 4SM -SN BKN025
     FM151800 21012G18KT P6SM VCSH SCT025 BKN040
     FM152300 23015G25KT 1/4SM +SN VCTS SCT007 OVC015CB
     FM160200 26015G24KT 2SM -SHSN BKN025=

USA.gov is the U.S. government's official web portal to all federal, state and local government web resources and services.